This is the latest recevied weather packets stored in our database for station/object WX6YYZ. If no packets are shown the sender has not sent any weather packets the latest 10 day(s).
| Time | Temp. | Humidity | Pressure | Rain* | Wind** | Luminosity | Snow |
|---|---|---|---|---|---|---|---|
| 1777571031 | 18.89° C | 64% | 1012.9 hPa | 0 mm | - | - | - |
| 1777569827 | 18.89° C | 63% | 1012.9 hPa | 0 mm | - | - | - |
| 1777569526 | 18.33° C | 65% | 1012.9 hPa | 0 mm | - | - | - |
| 1777566152 | 15° C | 76% | 1013.2 hPa | 0 mm | - | - | - |
| 1777560638 | 12.78° C | 84% | 1013.9 hPa | 0 mm | - | - | - |
| 1777558501 | 11.67° C | 85% | 1013.9 hPa | 0 mm | - | - | - |
| 1777558200 | 11.67° C | 85% | 1013.9 hPa | 0 mm | - | - | - |
| 1777555395 | 11.11° C | 84% | 1013.5 hPa | 0 mm | - | - | - |
| 1777552290 | 12.22° C | 82% | 1013.2 hPa | 0 mm | - | - | - |
| 1777549096 | 11.67° C | 80% | 1013.5 hPa | 0 mm | - | - | - |
| 1777546085 | 12.78° C | 77% | 1013.5 hPa | 0 mm | - | - | - |
| 1777542140 | 12.22° C | 78% | 1014.2 hPa | 0 mm | - | - | - |
| 1777538974 | 13.33° C | 73% | 1014.6 hPa | 0 mm | - | - | - |
| 1777536202 | 13.89° C | 72% | 1015.2 hPa | 0 mm | - | - | - |
| 1777535601 | 13.89° C | 72% | 1015.2 hPa | 0 mm | - | - | - |
| 1777535300 | 13.89° C | 72% | 1015.2 hPa | 0 mm | - | - | - |
| 1777535000 | 13.89° C | 71% | 1015.2 hPa | 0 mm | - | - | - |
| 1777529247 | 15.56° C | 68% | 1015.9 hPa | 0 mm | - | - | - |
| 1777528915 | 15.56° C | 68% | 1015.9 hPa | 0 mm | - | - | - |
| 1777526476 | 15.56° C | 67% | 1015.9 hPa | 0 mm | - | - | - |
| 1777524638 | 16.11° C | 64% | 1015.6 hPa | 0 mm | - | - | - |
| 1777524338 | 16.11° C | 64% | 1015.6 hPa | 0 mm | - | - | - |
| 1777522801 | 16.67° C | 63% | 1015.6 hPa | 0 mm | - | - | - |
| 1777521598 | 16.67° C | 62% | 1015.6 hPa | 0 mm | - | - | - |
| 1777520631 | 17.22° C | 61% | 1015.2 hPa | 0 mm | - | - | - |
* Rain latest hour (hover to see other rain measurements)
** Current wind speed in m/s (hover to see current wind gust speed)